Time;durP1;ratioP1;P1;durP2;ratioP2;P2;SDS_P1;SDS_P2;PMS_P1;PMS_P2;Temp;Humidity;BMP_temperature;BMP_pressure;BME280_temperature;BME280_humidity;BME280_pressure;Samples;Min_cycle;Max_cycle;Signal;HPM_P1;HPM_P2
2024/01/05 00:00:08;;;;;;;13.02;7.40;;;4.60;99.90;;;;;;4969152;28;20524;-64
2024/01/05 00:02:34;;;;;;;12.23;7.18;;;;;;;;;;4975261;28;20093;-63
2024/01/05 00:05:00;;;;;;;12.13;6.45;;;;;;;;;;4972765;28;20062;-63
2024/01/05 00:07:26;;;;;;;11.85;7.88;;;;;;;;;;4971654;28;20527;-64
2024/01/05 00:09:52;;;;;;;17.50;8.35;;;;;;;;;;4971586;28;20502;-64
2024/01/05 00:12:19;;;;;;;18.55;9.23;;;;;;;;;;4976678;28;20066;-64
2024/01/05 00:14:45;;;;;;;14.35;8.00;;;;;;;;;;4971354;28;20043;-63
2024/01/05 00:17:10;;;;;;;15.35;8.80;;;;;;;;;;4971698;28;20361;-63
2024/01/05 00:19:36;;;;;;;14.63;7.85;;;4.30;99.90;;;;;;4970129;28;20034;-63
2024/01/05 00:22:02;;;;;;;16.20;8.35;;;;;;;;;;4975352;28;20030;-63
2024/01/05 00:24:28;;;;;;;18.63;8.85;;;;;;;;;;4977259;28;20042;-64
2024/01/05 00:26:54;;;;;;;21.08;9.00;;;;;;;;;;4974477;28;20070;-63
2024/01/05 00:29:20;;;;;;;19.45;9.23;;;;;;;;;;4977435;28;20105;-64
2024/01/05 00:32:06;;;;;;;15.80;9.18;;;;;;;;;;4972847;28;20498;-63
2024/01/05 00:34:33;;;;;;;14.48;8.45;;;;;;;;;;4975505;28;20046;-64
2024/01/05 00:36:59;;;;;;;18.80;11.05;;;;;;;;;;4972307;28;20149;-64
2024/01/05 00:39:25;;;;;;;15.13;9.05;;;;;;;;;;4973258;28;20158;-63
2024/01/05 00:41:51;;;;;;;17.15;9.57;;;;;;;;;;4970566;28;20674;-63
2024/01/05 00:44:17;;;;;;;15.85;9.63;;;;;;;;;;4972988;28;20133;-65
2024/01/05 00:46:43;;;;;;;19.42;10.35;;;;;;;;;;4971856;28;20044;-64
2024/01/05 00:49:09;;;;;;;17.75;10.00;;;;;;;;;;4972490;28;20046;-63
2024/01/05 00:51:35;;;;;;;20.10;10.30;;;;;;;;;;4963565;28;20039;-64
2024/01/05 00:54:01;;;;;;;17.10;9.93;;;;;;;;;;4972042;28;20380;-63
2024/01/05 00:56:28;;;;;;;14.48;10.00;;;;;;;;;;4970362;28;20498;-63
2024/01/05 00:59:24;;;;;;;17.10;9.88;;;4.30;99.90;;;;;;4970573;28;20046;-64
2024/01/05 01:01:53;;;;;;;17.55;10.57;;;;;;;;;;4972716;28;20049;-64
2024/01/05 01:04:19;;;;;;;20.23;10.07;;;;;;;;;;4973750;28;20126;-63
2024/01/05 01:06:45;;;;;;;17.85;10.65;;;;;;;;;;4971253;28;20614;-64
2024/01/05 01:09:11;;;;;;;16.90;10.40;;;;;;;;;;4974856;28;20043;-63
2024/01/05 01:11:37;;;;;;;17.23;11.13;;;;;;;;;;4972078;28;20042;-63
2024/01/05 01:14:03;;;;;;;20.23;12.02;;;;;;;;;;4972769;28;20034;-64
2024/01/05 01:16:29;;;;;;;18.88;12.18;;;4.20;99.90;;;;;;4969770;28;20534;-64
2024/01/05 01:18:54;;;;;;;17.83;11.43;;;4.20;99.90;;;;;;4969766;28;20038;-64
2024/01/05 01:21:20;;;;;;;18.13;11.85;;;;;;;;;;4974478;28;20034;-64
2024/01/05 01:23:46;;;;;;;17.73;10.02;;;;;;;;;;4970037;28;20053;-63
2024/01/05 01:26:12;;;;;;;18.90;11.50;;;;;;;;;;4969979;28;20125;-63
2024/01/05 01:28:38;;;;;;;22.33;12.70;;;;;;;;;;4969890;28;20041;-64
2024/01/05 01:31:04;;;;;;;18.45;11.75;;;;;;;;;;4971236;28;20136;-64
2024/01/05 01:33:30;;;;;;;15.82;10.23;;;4.10;99.90;;;;;;4972473;28;20458;-63
2024/01/05 01:35:55;;;;;;;19.80;11.43;;;4.20;99.90;;;;;;4971469;28;20035;-63
2024/01/05 01:38:26;;;;;;;17.45;11.85;;;;;;;;;;4969153;28;20405;-63
2024/01/05 01:41:05;;;;;;;21.80;12.15;;;;;;;;;;4969202;28;20046;-63
2024/01/05 01:43:31;;;;;;;19.48;10.65;;;;;;;;;;4971041;28;20051;-63
2024/01/05 01:45:58;;;;;;;17.58;12.27;;;;;;;;;;4972880;28;20041;-62
2024/01/05 01:48:24;;;;;;;17.50;11.27;;;;;;;;;;4970124;28;20043;-63
2024/01/05 01:50:51;;;;;;;19.58;11.90;;;;;;;;;;4968330;28;20054;-63
2024/01/05 01:53:18;;;;;;;19.60;11.68;;;;;;;;;;4970004;28;20046;-64
2024/01/05 01:55:44;;;;;;;19.83;11.05;;;;;;;;;;4966231;28;20142;-63
2024/01/05 01:58:10;;;;;;;19.70;11.13;;;;;;;;;;4970028;28;20161;-63
2024/01/05 02:00:36;;;;;;;19.33;11.55;;;4.20;99.90;;;;;;4968683;28;20659;-63
2024/01/05 02:03:04;;;;;;;20.35;12.32;;;;;;;;;;4963391;28;20251;-64
2024/01/05 02:05:30;;;;;;;16.77;10.77;;;;;;;;;;4967645;28;20047;-63
2024/01/05 02:07:59;;;;;;;18.00;10.95;;;4.10;99.90;;;;;;4968729;28;20409;-64
2024/01/05 02:10:25;;;;;;;17.30;11.15;;;;;;;;;;4965647;28;20043;-63
2024/01/05 02:12:51;;;;;;;19.80;12.27;;;;;;;;;;4969104;28;20067;-64
2024/01/05 02:15:20;;;;;;;20.40;12.05;;;;;;;;;;4972197;28;20417;-64
2024/01/05 02:17:46;;;;;;;18.42;11.80;;;;;;;;;;4967635;28;20459;-64
2024/01/05 02:20:12;;;;;;;19.23;12.10;;;;;;;;;;4972451;28;20110;-63
2024/01/05 02:22:39;;;;;;;20.10;11.88;;;;;;;;;;4975795;28;20424;-64
2024/01/05 02:25:05;;;;;;;20.80;12.85;;;;;;;;;;4974188;28;20039;-64
2024/01/05 02:27:37;;;;;;;18.77;11.82;;;;;;;;;;4974771;28;20047;-64
2024/01/05 02:30:04;;;;;;;22.70;11.82;;;;;;;;;;4974180;28;20034;-64
2024/01/05 02:32:30;;;;;;;19.52;11.50;;;;;;;;;;4975402;28;20052;-63
2024/01/05 02:34:57;;;;;;;19.45;12.20;;;;;;;;;;4977434;28;20046;-63
2024/01/05 02:37:22;;;;;;;24.10;14.00;;;4.10;99.90;;;;;;4975089;28;20521;-64
2024/01/05 02:39:48;;;;;;;20.02;11.93;;;4.10;99.90;;;;;;4976376;28;20078;-64
2024/01/05 02:42:14;;;;;;;18.77;12.10;;;;;;;;;;4976272;28;20042;-64
2024/01/05 02:44:40;;;;;;;19.48;10.88;;;;;;;;;;4970815;28;20076;-64
2024/01/05 02:47:06;;;;;;;20.33;11.70;;;;;;;;;;4972732;28;20543;-64
2024/01/05 02:49:32;;;;;;;22.15;13.10;;;4.10;99.90;;;;;;4973259;28;20392;-64
2024/01/05 02:51:58;;;;;;;17.95;11.40;;;;;;;;;;4974085;28;20035;-64
2024/01/05 02:54:24;;;;;;;17.98;11.20;;;;;;;;;;4974333;28;20035;-64
2024/01/05 02:56:50;;;;;;;21.58;11.55;;;4.10;99.90;;;;;;4967253;28;20438;-64
2024/01/05 02:59:16;;;;;;;20.27;11.60;;;;;;;;;;4972790;28;20042;-64
2024/01/05 03:01:42;;;;;;;22.48;11.95;;;;;;;;;;4972034;28;20042;-64
2024/01/05 03:04:08;;;;;;;18.98;11.50;;;;;;;;;;4972707;28;20047;-64
2024/01/05 03:06:33;;;;;;;18.05;11.70;;;4.10;99.90;;;;;;4967571;28;20047;-64
2024/01/05 03:08:59;;;;;;;17.00;11.05;;;;;;;;;;4971453;28;20035;-64
2024/01/05 03:11:25;;;;;;;21.27;10.82;;;;;;;;;;4967790;28;20169;-64
2024/01/05 03:13:51;;;;;;;17.75;10.35;;;;;;;;;;4971109;28;20035;-63
2024/01/05 03:16:17;;;;;;;16.23;10.13;;;;;;;;;;4971117;28;20092;-64
2024/01/05 03:18:43;;;;;;;16.02;8.93;;;;;;;;;;4969544;28;20117;-63
2024/01/05 03:21:09;;;;;;;15.80;9.38;;;;;;;;;;4966894;28;20039;-64
2024/01/05 03:23:35;;;;;;;18.40;10.07;;;;;;;;;;4970802;28;20038;-63
2024/01/05 03:26:01;;;;;;;23.60;11.82;;;;;;;;;;4969181;28;20694;-64
2024/01/05 03:28:27;;;;;;;14.75;9.23;;;;;;;;;;4967558;28;20031;-65
2024/01/05 03:30:53;;;;;;;18.25;10.65;;;;;;;;;;4967197;28;20525;-64
2024/01/05 03:33:20;;;;;;;17.83;10.23;;;;;;;;;;4968649;28;20066;-63
2024/01/05 03:35:46;;;;;;;19.38;10.73;;;;;;;;;;4967771;28;20142;-64
2024/01/05 03:38:11;;;;;;;17.45;10.10;;;4.00;99.90;;;;;;4970279;28;20154;-64
2024/01/05 03:40:37;;;;;;;21.45;10.25;;;;;;;;;;4970047;28;20039;-64
2024/01/05 03:43:03;;;;;;;18.73;10.23;;;;;;;;;;4971151;28;20384;-65
2024/01/05 03:45:29;;;;;;;17.77;11.07;;;;;;;;;;4971339;28;20046;-64
2024/01/05 03:47:56;;;;;;;19.13;10.20;;;;;;;;;;4971081;28;20102;-65
2024/01/05 03:50:22;;;;;;;18.13;10.70;;;;;;;;;;4971574;28;20109;-64
2024/01/05 03:52:48;;;;;;;18.30;9.20;;;;;;;;;;4971017;28;20502;-64
2024/01/05 03:55:14;;;;;;;19.05;10.02;;;;;;;;;;4970918;28;20102;-64
2024/01/05 03:57:40;;;;;;;17.35;9.25;;;;;;;;;;4970977;28;20035;-65
2024/01/05 04:00:07;;;;;;;16.20;9.90;;;;;;;;;;4970333;28;20121;-65
2024/01/05 04:02:33;;;;;;;16.13;9.50;;;;;;;;;;4970813;28;20411;-65
2024/01/05 04:04:59;;;;;;;15.93;9.05;;;;;;;;;;4967249;28;20117;-64
2024/01/05 04:07:25;;;;;;;21.52;9.90;;;;;;;;;;4970074;28;20050;-64
2024/01/05 04:09:51;;;;;;;18.15;9.98;;;;;;;;;;4969363;28;20564;-64
2024/01/05 04:12:17;;;;;;;22.73;10.40;;;;;;;;;;4971786;28;20402;-64
2024/01/05 04:14:44;;;;;;;15.15;8.30;;;;;;;;;;4968198;28;20038;-64
2024/01/05 04:17:11;;;;;;;18.85;10.40;;;;;;;;;;4968291;28;20035;-64
2024/01/05 04:19:37;;;;;;;19.23;9.27;;;;;;;;;;4970991;28;20043;-64
2024/01/05 04:22:05;;;;;;;14.93;8.98;;;4.00;99.90;;;;;;4970105;28;20043;-64
2024/01/05 04:24:31;;;;;;;16.45;9.52;;;;;;;;;;4971764;28;20039;-64
2024/01/05 04:27:00;;;;;;;14.65;8.50;;;;;;;;;;4968119;28;20050;-64
2024/01/05 04:29:26;;;;;;;14.10;7.53;;;;;;;;;;4969863;28;20483;-64
2024/01/05 04:31:52;;;;;;;16.25;9.15;;;;;;;;;;4970731;28;20050;-64
2024/01/05 04:34:17;;;;;;;14.07;7.95;;;4.00;99.90;;;;;;4970996;28;20597;-64
2024/01/05 04:36:44;;;;;;;13.77;8.38;;;;;;;;;;4970757;28;20039;-64
2024/01/05 04:39:10;;;;;;;15.98;8.77;;;;;;;;;;4970500;28;20039;-64
2024/01/05 04:41:36;;;;;;;17.60;8.23;;;3.90;99.90;;;;;;4970657;28;20049;-64
2024/01/05 04:44:03;;;;;;;13.40;8.30;;;;;;;;;;4969802;28;20065;-64
2024/01/05 04:46:29;;;;;;;14.80;8.70;;;4.00;99.90;;;;;;4967693;28;20050;-66
2024/01/05 04:48:55;;;;;;;16.17;8.43;;;;;;;;;;4969373;28;20049;-63
2024/01/05 04:51:21;;;;;;;14.40;7.38;;;4.00;99.90;;;;;;4970073;28;20030;-63
2024/01/05 04:53:49;;;;;;;13.82;8.10;;;;;;;;;;4966646;28;20074;-65
2024/01/05 04:56:17;;;;;;;14.90;8.50;;;4.00;99.90;;;;;;4964096;28;20044;-64
2024/01/05 04:58:43;;;;;;;15.80;8.68;;;;;;;;;;4967339;28;20030;-64
2024/01/05 05:01:09;;;;;;;16.10;8.77;;;;;;;;;;4967900;28;20540;-64
2024/01/05 05:03:35;;;;;;;13.35;8.38;;;3.90;99.90;;;;;;4968878;28;20713;-64
2024/01/05 05:06:04;;;;;;;12.73;8.15;;;;;;;;;;4968248;28;20060;-64
2024/01/05 05:08:30;;;;;;;12.82;7.55;;;;;;;;;;4968213;28;20043;-64
2024/01/05 05:10:57;;;;;;;12.63;7.75;;;;;;;;;;4968959;28;20510;-64
2024/01/05 05:13:23;;;;;;;14.20;7.80;;;;;;;;;;4969697;28;20046;-64
2024/01/05 05:15:49;;;;;;;12.48;7.10;;;4.00;99.90;;;;;;4968526;28;20097;-64
2024/01/05 05:18:14;;;;;;;13.10;7.10;;;3.90;99.90;;;;;;4967126;28;20034;-64
2024/01/05 05:20:40;;;;;;;13.88;7.40;;;;;;;;;;4966745;28;20049;-64
2024/01/05 05:23:06;;;;;;;16.98;7.25;;;4.10;99.90;;;;;;4969100;28;20031;-64
2024/01/05 05:25:32;;;;;;;13.20;7.43;;;4.10;99.90;;;;;;4969755;28;20043;-64
2024/01/05 05:27:58;;;;;;;13.32;7.80;;;;;;;;;;4968814;28;20035;-64
2024/01/05 05:30:24;;;;;;;13.70;7.40;;;;;;;;;;4967761;28;20047;-63
2024/01/05 05:32:50;;;;;;;12.82;6.93;;;;;;;;;;4968789;28;20042;-64
2024/01/05 05:35:16;;;;;;;15.38;7.38;;;4.00;99.90;;;;;;4968992;28;20035;-64
2024/01/05 05:37:42;;;;;;;12.43;7.90;;;;;;;;;;4969850;28;20118;-63
2024/01/05 05:40:09;;;;;;;11.88;7.80;;;;;;;;;;4968734;28;20054;-64
2024/01/05 05:42:35;;;;;;;14.35;7.68;;;;;;;;;;4968443;28;20043;-64
2024/01/05 05:45:01;;;;;;;14.07;7.70;;;;;;;;;;4967418;28;20046;-64
2024/01/05 05:47:27;;;;;;;15.23;8.07;;;;;;;;;;4968868;28;20046;-64
2024/01/05 05:49:53;;;;;;;14.85;7.68;;;;;;;;;;4966470;28;20118;-65
2024/01/05 05:52:19;;;;;;;15.23;8.27;;;;;;;;;;4969585;28;20497;-65
2024/01/05 05:54:45;;;;;;;14.60;8.38;;;;;;;;;;4969558;28;20572;-64
2024/01/05 05:57:12;;;;;;;12.93;8.32;;;;;;;;;;4968303;28;20038;-64
2024/01/05 05:59:38;;;;;;;15.50;8.45;;;;;;;;;;4968226;28;20568;-64
2024/01/05 06:02:04;;;;;;;13.02;7.75;;;;;;;;;;4967486;28;20046;-64
2024/01/05 06:04:30;;;;;;;15.20;9.90;;;;;;;;;;4969166;28;20458;-64
2024/01/05 06:06:56;;;;;;;15.32;8.75;;;;;;;;;;4965987;28;20077;-64
2024/01/05 06:09:22;;;;;;;16.38;9.48;;;;;;;;;;4967642;28;20063;-64
2024/01/05 06:11:48;;;;;;;16.60;8.85;;;;;;;;;;4967000;28;20049;-64
2024/01/05 06:14:14;;;;;;;13.75;7.90;;;;;;;;;;4968326;28;20031;-65
2024/01/05 06:16:40;;;;;;;17.92;9.40;;;;;;;;;;4969881;28;20125;-65
2024/01/05 06:19:08;;;;;;;17.75;9.23;;;;;;;;;;4967317;28;20118;-64
2024/01/05 06:21:35;;;;;;;15.93;8.77;;;;;;;;;;4968368;28;20507;-64
2024/01/05 06:24:01;;;;;;;20.23;10.10;;;;;;;;;;4966407;28;20053;-63
2024/01/05 06:26:27;;;;;;;18.75;9.10;;;;;;;;;;4966634;28;20039;-64
2024/01/05 06:28:53;;;;;;;18.35;9.80;;;;;;;;;;4966152;28;20045;-64
2024/01/05 06:31:19;;;;;;;21.38;11.82;;;;;;;;;;4965141;28;20042;-64
2024/01/05 06:33:45;;;;;;;16.58;10.90;;;;;;;;;;4969510;28;20051;-64
2024/01/05 06:36:11;;;;;;;18.58;11.57;;;4.30;99.90;;;;;;4964502;28;20039;-64
2024/01/05 06:38:37;;;;;;;17.65;9.80;;;;;;;;;;4967061;28;20097;-64
2024/01/05 06:41:03;;;;;;;18.90;11.45;;;;;;;;;;4965795;28;20409;-64
2024/01/05 06:43:29;;;;;;;17.83;9.40;;;;;;;;;;4968146;28;20387;-64
2024/01/05 06:45:55;;;;;;;17.65;9.85;;;;;;;;;;4966165;28;20101;-64
2024/01/05 06:48:21;;;;;;;16.35;9.48;;;;;;;;;;4966482;28;20039;-65
2024/01/05 06:50:47;;;;;;;15.35;9.77;;;;;;;;;;4965189;28;20043;-65
2024/01/05 06:53:13;;;;;;;15.60;8.48;;;;;;;;;;4967555;28;20122;-65
2024/01/05 06:55:39;;;;;;;14.88;8.73;;;;;;;;;;4966978;28;20133;-65
2024/01/05 06:58:05;;;;;;;15.18;8.57;;;4.30;99.90;;;;;;4963394;28;20440;-65
2024/01/05 07:00:37;;;;;;;15.38;8.38;;;;;;;;;;4966676;28;20125;-65
2024/01/05 07:03:18;;;;;;;16.67;8.65;;;4.20;99.90;;;;;;4955784;28;20117;-65
2024/01/05 07:05:48;;;;;;;13.32;8.27;;;4.40;99.90;;;;;;4969213;28;20042;-65
2024/01/05 07:08:15;;;;;;;14.20;8.30;;;;;;;;;;4969165;28;20042;-65
2024/01/05 07:10:41;;;;;;;14.63;8.35;;;;;;;;;;4970614;28;20121;-65
2024/01/05 07:13:07;;;;;;;16.88;9.43;;;;;;;;;;4970025;28;20039;-65
2024/01/05 07:15:33;;;;;;;19.70;9.95;;;;;;;;;;4972421;28;20381;-65
2024/01/05 07:17:58;;;;;;;18.27;9.60;;;4.40;99.90;;;;;;4970703;28;20171;-65
2024/01/05 07:20:24;;;;;;;14.57;9.32;;;;;;;;;;4966974;28;20043;-66
2024/01/05 07:22:54;;;;;;;18.85;10.88;;;4.40;99.90;;;;;;4969621;28;20043;-66
2024/01/05 07:25:20;;;;;;;19.23;11.52;;;;;;;;;;4969314;28;20074;-65
2024/01/05 07:27:46;;;;;;;20.38;10.80;;;;;;;;;;4970370;28;20070;-65
2024/01/05 07:30:12;;;;;;;16.42;10.07;;;;;;;;;;4969130;28;20077;-66
2024/01/05 07:32:38;;;;;;;18.80;10.80;;;;;;;;;;4968519;28;20041;-65
2024/01/05 07:35:04;;;;;;;17.33;10.55;;;;;;;;;;4968156;28;20042;-64
2024/01/05 07:37:30;;;;;;;18.95;11.68;;;;;;;;;;4969651;28;20483;-66
2024/01/05 07:39:56;;;;;;;15.65;9.45;;;4.40;99.90;;;;;;4969033;28;20082;-65
2024/01/05 07:42:22;;;;;;;20.88;11.40;;;4.30;99.90;;;;;;4968919;28;20078;-66
2024/01/05 07:44:47;;;;;;;17.13;9.52;;;4.50;99.90;;;;;;4968658;28;20031;-65
2024/01/05 07:47:13;;;;;;;17.77;10.75;;;;;;;;;;4968693;28;20478;-66
2024/01/05 07:49:40;;;;;;;18.75;10.55;;;5.00;99.90;;;;;;4969666;28;20039;-65
2024/01/05 07:52:06;;;;;;;17.50;10.85;;;;;;;;;;4969067;28;20449;-65
2024/01/05 07:54:32;;;;;;;17.92;10.18;;;;;;;;;;4967210;28;20039;-64
2024/01/05 07:56:58;;;;;;;19.15;10.13;;;;;;;;;;4967106;28;20048;-65
2024/01/05 07:59:24;;;;;;;16.08;9.45;;;;;;;;;;4967938;28;20154;-65
2024/01/05 08:01:53;;;;;;;19.20;10.20;;;;;;;;;;4970396;28;20050;-66
2024/01/05 08:04:19;;;;;;;17.13;10.18;;;;;;;;;;4970462;28;20054;-65
2024/01/05 08:06:48;;;;;;;19.42;9.38;;;4.30;99.90;;;;;;4969254;28;20051;-65
2024/01/05 08:09:13;;;;;;;19.42;11.35;;;;;;;;;;4962894;28;20038;-65
2024/01/05 08:11:39;;;;;;;16.98;9.15;;;;;;;;;;4969144;28;20069;-65
2024/01/05 08:14:10;;;;;;;16.70;9.30;;;;;;;;;;4966544;28;20070;-65
2024/01/05 08:16:36;;;;;;;17.10;10.65;;;;;;;;;;4969714;28;20047;-65
2024/01/05 08:19:02;;;;;;;18.20;10.73;;;;;;;;;;4970218;28;20053;-65
2024/01/05 08:21:28;;;;;;;17.95;11.30;;;;;;;;;;4964355;28;20042;-65
2024/01/05 08:23:54;;;;;;;18.73;10.50;;;;;;;;;;4971498;28;20502;-65
2024/01/05 08:26:20;;;;;;;15.50;10.38;;;;;;;;;;4969603;28;20055;-65
2024/01/05 08:28:47;;;;;;;16.92;10.50;;;;;;;;;;4970068;28;20336;-66
2024/01/05 08:31:13;;;;;;;17.65;10.52;;;;;;;;;;4966707;28;20050;-66
2024/01/05 08:33:39;;;;;;;16.55;10.05;;;;;;;;;;4969587;28;20043;-65
2024/01/05 08:36:07;;;;;;;18.10;10.35;;;;;;;;;;4967478;28;20053;-65
2024/01/05 08:38:33;;;;;;;17.98;11.05;;;;;;;;;;4965911;28;20054;-65
2024/01/05 08:40:59;;;;;;;17.38;10.85;;;;;;;;;;4964598;28;20115;-65
2024/01/05 08:43:25;;;;;;;20.15;11.43;;;;;;;;;;4965393;28;20096;-65
2024/01/05 08:45:51;;;;;;;20.60;11.60;;;;;;;;;;4964672;28;20039;-65
2024/01/05 08:48:58;;;;;;;20.45;10.80;;;;;;;;;;4965225;28;20110;-65
2024/01/05 08:51:24;;;;;;;20.13;10.88;;;;;;;;;;4968947;28;20069;-65
2024/01/05 08:53:50;;;;;;;18.33;10.18;;;;;;;;;;4963184;28;20482;-65
2024/01/05 08:56:16;;;;;;;20.55;11.55;;;;;;;;;;4965972;28;20043;-65
2024/01/05 08:58:42;;;;;;;19.83;12.20;;;4.80;99.90;;;;;;4969886;28;20503;-66
2024/01/05 09:01:08;;;;;;;20.73;11.07;;;;;;;;;;4969008;28;20097;-65
2024/01/05 09:03:34;;;;;;;21.08;11.07;;;;;;;;;;4970021;28;20179;-65
2024/01/05 09:06:00;;;;;;;18.73;10.95;;;;;;;;;;4968495;28;20066;-64
2024/01/05 09:08:26;;;;;;;19.50;11.30;;;;;;;;;;4973163;28;20498;-63
2024/01/05 09:10:52;;;;;;;18.45;11.20;;;;;;;;;;4973193;28;20035;-65
2024/01/05 09:13:18;;;;;;;20.02;10.73;;;;;;;;;;4970006;28;20031;-65
2024/01/05 09:15:44;;;;;;;20.40;11.68;;;;;;;;;;4969530;28;20444;-64
2024/01/05 09:18:10;;;;;;;17.80;10.10;;;;;;;;;;4969673;28;20045;-65
2024/01/05 09:20:36;;;;;;;19.75;11.18;;;;;;;;;;4982716;28;20119;-65
2024/01/05 09:23:02;;;;;;;17.13;10.02;;;;;;;;;;4960523;28;20439;-65
2024/01/05 09:25:32;;;;;;;17.05;10.25;;;;;;;;;;4969083;28;20118;-65
2024/01/05 09:28:01;;;;;;;19.45;11.88;;;4.80;99.90;;;;;;4969101;28;20042;-65
2024/01/05 09:30:44;;;;;;;18.00;10.65;;;4.30;99.90;;;;;;4967742;28;20121;-66
2024/01/05 09:33:10;;;;;;;17.00;10.20;;;;;;;;;;4968944;28;20039;-65
2024/01/05 09:35:36;;;;;;;16.25;10.45;;;;;;;;;;4970134;28;20054;-65
2024/01/05 09:38:03;;;;;;;19.20;10.27;;;;;;;;;;4970626;28;20061;-65
2024/01/05 09:40:29;;;;;;;16.85;9.73;;;;;;;;;;4969970;28;20126;-65
2024/01/05 09:42:57;;;;;;;17.15;10.63;;;5.10;99.90;;;;;;4973546;28;20121;-65
2024/01/05 09:45:24;;;;;;;16.50;10.52;;;;;;;;;;4970002;28;20564;-65
2024/01/05 09:47:51;;;;;;;18.05;10.50;;;;;;;;;;4972057;28;20042;-65
2024/01/05 09:50:17;;;;;;;19.13;11.60;;;;;;;;;;4970311;28;20171;-65
2024/01/05 09:52:44;;;;;;;18.65;10.18;;;4.90;99.90;;;;;;4970876;28;20039;-65
2024/01/05 09:55:10;;;;;;;18.85;10.55;;;;;;;;;;4974205;28;20413;-65
2024/01/05 09:57:37;;;;;;;18.35;11.20;;;;;;;;;;4967903;28;20055;-65
2024/01/05 10:00:04;;;;;;;18.15;10.48;;;;;;;;;;4976674;28;20097;-65
2024/01/05 10:02:37;;;;;;;15.50;9.48;;;;;;;;;;4965237;28;20092;-65
2024/01/05 10:05:02;;;;;;;20.17;11.32;;;5.20;99.90;;;;;;4957924;28;20039;-65
2024/01/05 10:07:28;;;;;;;19.38;11.40;;;;;;;;;;4963728;28;20481;-65
2024/01/05 10:09:55;;;;;;;19.52;10.60;;;;;;;;;;4968783;28;20365;-66
2024/01/05 10:12:21;;;;;;;17.48;10.48;;;;;;;;;;4964885;28;20503;-65
2024/01/05 10:14:47;;;;;;;16.20;9.43;;;;;;;;;;4966521;28;20049;-65
2024/01/05 10:17:15;;;;;;;15.60;9.25;;;;;;;;;;4971385;28;20043;-65
2024/01/05 10:19:41;;;;;;;18.42;10.73;;;;;;;;;;4967796;28;20545;-65
2024/01/05 10:22:11;;;;;;;17.25;9.90;;;;;;;;;;4967077;28;20499;-64
2024/01/05 10:24:37;;;;;;;18.55;10.77;;;;;;;;;;4966699;28;20042;-65
2024/01/05 10:27:04;;;;;;;17.58;9.65;;;;;;;;;;4969354;28;20185;-65
2024/01/05 10:29:30;;;;;;;23.15;11.32;;;;;;;;;;4968667;28;20042;-64
2024/01/05 10:32:12;;;;;;;17.00;9.35;;;;;;;;;;4970159;28;20088;-65
2024/01/05 10:34:42;;;;;;;16.88;9.38;;;;;;;;;;4965275;28;20570;-65
2024/01/05 10:37:09;;;;;;;16.63;10.00;;;;;;;;;;4973897;28;20046;-65
2024/01/05 10:39:35;;;;;;;18.38;10.20;;;;;;;;;;4970954;28;20045;-65
2024/01/05 10:42:20;;;;;;;17.67;9.82;;;;;;;;;;4970830;28;20117;-65
2024/01/05 10:44:52;;;;;;;17.95;9.98;;;;;;;;;;4971287;28;20066;-65
2024/01/05 10:47:23;;;;;;;17.48;9.70;;;5.20;99.90;;;;;;4972419;28;20422;-65
2024/01/05 10:49:50;;;;;;;17.70;10.38;;;;;;;;;;4971775;28;20046;-66
2024/01/05 10:52:27;;;;;;;21.65;11.68;;;;;;;;;;4972368;28;20074;-65
2024/01/05 10:54:54;;;;;;;20.10;10.55;;;;;;;;;;4967559;28;20042;-65
2024/01/05 10:57:20;;;;;;;18.75;10.13;;;5.40;99.90;;;;;;4972753;28;20159;-66
2024/01/05 10:59:47;;;;;;;21.80;11.25;;;;;;;;;;4971509;28;20077;-66
2024/01/05 11:02:26;;;;;;;15.85;9.70;;;;;;;;;;4970398;28;20471;-65
2024/01/05 11:04:54;;;;;;;18.38;10.32;;;;;;;;;;4955817;28;20038;-66
2024/01/05 11:07:22;;;;;;;21.88;11.38;;;;;;;;;;4967619;28;20051;-66
2024/01/05 11:09:58;;;;;;;13.23;7.93;;;;;;;;;;4959100;28;20521;-65
2024/01/05 11:12:37;;;;;;;18.33;10.63;;;5.20;99.90;;;;;;4958142;28;20102;-65
2024/01/05 11:15:14;;;;;;;16.25;9.50;;;5.50;99.90;;;;;;4959069;28;20046;-66
2024/01/05 11:17:40;;;;;;;15.77;8.90;;;5.40;99.90;;;;;;4962739;28;20098;-66
2024/01/05 11:20:32;;;;;;;16.25;10.05;;;;;;;;;;4959309;28;20447;-65
2024/01/05 11:22:59;;;;;;;15.70;9.88;;;;;;;;;;4952040;28;20548;-65
2024/01/05 11:25:25;;;;;;;16.50;9.80;;;;;;;;;;4966826;28;20533;-66
2024/01/05 11:27:51;;;;;;;20.90;11.02;;;5.60;99.90;;;;;;4962803;28;20041;-66
2024/01/05 11:30:37;;;;;;;16.35;9.23;;;;;;;;;;4963734;28;20040;-66
2024/01/05 11:33:03;;;;;;;17.23;9.38;;;;;;;;;;4961073;28;20039;-66
2024/01/05 11:35:35;;;;;;;16.33;9.18;;;;;;;;;;4960565;28;20039;-66
2024/01/05 11:38:03;;;;;;;16.08;8.73;;;;;;;;;;4967398;28;20061;-65
2024/01/05 11:40:31;;;;;;;14.73;8.63;;;5.30;99.90;;;;;;4971611;28;20114;-65
2024/01/05 11:42:57;;;;;;;16.92;10.23;;;;;;;;;;4970222;28;20031;-66
2024/01/05 11:45:42;;;;;;;19.27;10.23;;;;;;;;;;4969795;28;20039;-65
2024/01/05 11:48:08;;;;;;;21.63;10.95;;;;;;;;;;4961182;28;20525;-65
2024/01/05 11:50:35;;;;;;;16.70;10.02;;;;;;;;;;4967996;28;20069;-65
2024/01/05 11:53:16;;;;;;;19.65;10.57;;;5.80;99.90;;;;;;4970939;28;20502;-65
2024/01/05 11:55:48;;;;;;;21.55;10.70;;;;;;;;;;4970842;28;20042;-66
2024/01/05 11:58:33;;;;;;;17.50;9.90;;;5.70;99.90;;;;;;4967405;28;20175;-66
2024/01/05 12:00:59;;;;;;;;;;;;;;;;;;4967438;28;20070;-65
2024/01/05 12:03:25;;;;;;;18.77;10.35;;;;;;;;;;4971975;28;19922;-65
2024/01/05 12:06:01;;;;;;;21.13;10.43;;;;;;;;;;4967865;28;20047;-65
2024/01/05 12:08:27;;;;;;;19.77;10.38;;;;;;;;;;4970667;28;20039;-65
2024/01/05 12:10:54;;;;;;;17.20;9.55;;;;;;;;;;4971365;28;20041;-64
2024/01/05 12:13:24;;;;;;;17.55;10.57;;;;;;;;;;4971559;28;20498;-65
2024/01/05 12:15:57;;;;;;;16.42;9.48;;;;;;;;;;4967360;28;20054;-64
2024/01/05 12:18:29;;;;;;;23.20;10.98;;;;;;;;;;4970556;28;20043;-65
2024/01/05 12:20:56;;;;;;;20.23;11.13;;;;;;;;;;4974463;28;20506;-64
2024/01/05 12:23:22;;;;;;;19.33;10.77;;;;;;;;;;4970217;28;20035;-65
2024/01/05 12:26:02;;;;;;;17.38;9.80;;;;;;;;;;4971490;28;20047;-64
2024/01/05 12:28:29;;;;;;;18.75;10.60;;;;;;;;;;4969210;28;20401;-65
2024/01/05 12:30:56;;;;;;;21.60;11.27;;;;;;;;;;4967540;28;20039;-65
2024/01/05 12:33:23;;;;;;;14.90;9.73;;;;;;;;;;4996969;22;20038;-52
2024/01/05 12:35:50;;;;;;;20.45;11.80;;;;;;;;;;4989015;28;20092;-55
2024/01/05 12:38:23;;;;;;;16.05;9.32;;;;;;;;;;4988756;28;20593;-54
2024/01/05 12:40:49;;;;;;;18.05;10.10;;;;;;;;;;4989434;28;20046;-54
2024/01/05 12:43:16;;;;;;;20.02;11.00;;;;;;;;;;4990155;28;20053;-54
2024/01/05 12:45:42;;;;;;;21.58;11.63;;;;;;;;;;4987932;28;20080;-53
2024/01/05 12:48:12;;;;;;;17.27;10.38;;;6.10;99.90;;;;;;4981602;28;20037;-52
2024/01/05 12:50:37;;;;;;;16.73;9.68;;;6.10;99.90;;;;;;4987237;28;20034;-54
2024/01/05 12:53:16;;;;;;;18.50;11.13;;;;;;;;;;4989902;28;20454;-52
2024/01/05 12:55:41;;;;;;;16.27;8.52;;;6.20;99.90;;;;;;4988217;28;20034;-53
2024/01/05 12:58:08;;;;;;;16.23;9.32;;;;;;;;;;4989223;28;20454;-51
2024/01/05 13:00:41;;;;;;;16.88;10.18;;;;;;;;;;4989841;28;20129;-52
2024/01/05 13:03:12;;;;;;;19.95;11.13;;;;;;;;;;4979439;28;20127;-54
2024/01/05 13:05:38;;;;;;;18.70;10.23;;;;;;;;;;4986458;28;20521;-55
2024/01/05 13:08:04;;;;;;;15.63;9.50;;;;;;;;;;4986675;28;20038;-56
2024/01/05 13:10:30;;;;;;;18.25;10.75;;;;;;;;;;4989615;28;20133;-56
2024/01/05 13:12:57;;;;;;;15.63;9.50;;;;;;;;;;4984454;28;20130;-55
2024/01/05 13:15:23;;;;;;;20.05;11.07;;;;;;;;;;4989659;28;20042;-54
2024/01/05 13:17:49;;;;;;;17.17;9.88;;;;;;;;;;4988679;28;20476;-52
2024/01/05 13:20:22;;;;;;;18.67;11.10;;;;;;;;;;4988144;28;20050;-52
2024/01/05 13:22:49;;;;;;;18.58;10.95;;;;;;;;;;4987708;28;20155;-50
2024/01/05 13:25:15;;;;;;;18.63;11.10;;;;;;;;;;4987703;28;20096;-55
2024/01/05 13:27:42;;;;;;;20.27;11.63;;;;;;;;;;4988551;28;20066;-53
2024/01/05 13:30:13;;;;;;;16.75;10.45;;;6.10;99.90;;;;;;4987885;28;20100;-52
2024/01/05 13:32:39;;;;;;;18.35;10.07;;;;;;;;;;4986633;28;20044;-54
2024/01/05 13:35:05;;;;;;;17.52;9.70;;;6.30;99.90;;;;;;4988858;28;20485;-54
2024/01/05 13:37:32;;;;;;;18.52;11.23;;;5.80;99.90;;;;;;4984519;28;20050;-51
2024/01/05 13:39:57;;;;;;;18.63;10.65;;;6.40;99.90;;;;;;4982054;28;20053;-55
2024/01/05 13:42:25;;;;;;;22.63;11.80;;;;;;;;;;4987634;28;20034;-54
2024/01/05 13:44:51;;;;;;;19.58;11.40;;;;;;;;;;4986539;28;20042;-53
2024/01/05 13:47:18;;;;;;;18.88;10.85;;;;;;;;;;4986993;28;20038;-55
2024/01/05 13:49:43;;;;;;;18.77;11.07;;;6.70;99.90;;;;;;4986739;28;20117;-53
2024/01/05 13:52:09;;;;;;;18.25;11.00;;;;;;;;;;4988548;28;20117;-52
2024/01/05 13:54:35;;;;;;;18.85;10.93;;;6.60;99.90;;;;;;4986761;28;20059;-51
2024/01/05 13:57:02;;;;;;;17.67;10.60;;;6.60;99.90;;;;;;4987577;28;20114;-55
2024/01/05 13:59:28;;;;;;;18.50;10.95;;;;;;;;;;4987728;28;20038;-51
2024/01/05 14:01:54;;;;;;;15.77;9.18;;;;;;;;;;4986206;28;20043;-53